Flight Track Log - Related Links

Times and Time Zones

All times are in EST time to prevent confusion due to time zone crossing. See the N738LC flight status page for this flight to view local times or setup timezone preferences in your user account.

Time Position Orientation Groundspeed Altitude Reporting Facility
EST Latitude Longitude Course Direction KTS MPH feet Rate Location/Type
Sat 07:26:34 AM 37.9275 -92.6953 174° South 111 128 7,000  Level Kansas City Center
Sat 07:27:34 AM 37.9003 -92.6939 178° South 98 113 7,000 -1,190 Level Kansas City Center
Sat 07:28:35 AM 37.8758 -92.6850 164° South 94 108 4,600 -843 Descending Kansas City Center
Sat 07:29:35 AM 37.8525 -92.6742 160° South 91 105 5,300 694 Climbing Kansas City Center
Sat 07:30:36 AM 37.8256 -92.6669 168° South 94 108 6,000 744 Climbing Kansas City Center
Sat 07:31:36 AM 37.7983 -92.6625 173° South 97 112 6,800 496 Climbing Kansas City Center
Sat 07:32:00 AM 37.7767 -92.6627 174° South  Level Estimated
Sat 07:32:37 AM 37.7689 -92.6547 168° South 101 116 7,000  Level Kansas City Center
Sat 07:33:37 AM 37.7294 -92.6536 179° South 126 145 7,000 -50 Level Kansas City Center
Sat 07:34:38 AM 37.6892 -92.6550 182° South 138 159 6,900 -50 Descending Kansas City Center
Sat 07:35:38 AM 37.6514 -92.6503 174° South 138 159 6,900  Level Kansas City Center
Sat 07:36:39 AM 37.6131 -92.6447 173° South 138 159 6,900  Level Kansas City Center
Sat 07:37:39 AM 37.5750 -92.6392 173° South 137 158 6,900  Level Kansas City Center
Sat 07:38:40 AM 37.5383 -92.6317 171° South 135 155 6,900 50 Level Kansas City Center
Sat 07:39:40 AM 37.4992 -92.6300 178° South 137 158 7,000  Climbing Kansas City Center
Sat 07:40:41 AM 37.4608 -92.6278 177° South 138 159 6,900 -49 Descending Kansas City Center
Sat 07:41:42 AM 37.4217 -92.6267 179° South 139 160 6,900  Level Kansas City Center
Sat 07:42:42 AM 37.3836 -92.6231 176° South 138 159 6,900 50 Level Kansas City Center
Sat 07:43:43 AM 37.3447 -92.6175 174° South 138 159 7,000 50 Climbing Kansas City Center
Sat 07:44:43 AM 37.2989 -92.6125 175° South 138 159 7,000  Level Kansas City Center
Sat 07:45:44 AM 37.2603 -92.6111 178° South 138 159 7,000  Level Kansas City Center
Sat 07:46:44 AM 37.2222 -92.6058 174° South 137 158 7,000  Level Kansas City Center
Sat 07:47:45 AM 37.1842 -92.5986 171° South 137 158 7,000  Level Kansas City Center
Sat 07:48:46 AM 37.1447 -92.5922 173° South 139 160 7,000  Level Kansas City Center
Sat 07:49:46 AM 37.1064 -92.5886 176° South 140 161 7,000  Level Kansas City Center
Sat 07:50:47 AM 37.0681 -92.5831 173° South 138 159 7,000 -50 Level Kansas City Center
Sat 07:51:47 AM 37.0306 -92.5789 175° South 137 158 6,900 99 Descending Kansas City Center
Sat 07:52:48 AM 36.9933 -92.5750 175° South 135 155 7,200 49 Climbing Kansas City Center
Sat 07:53:49 AM 36.9553 -92.5725 177° South 135 155 7,000 -66 Descending Kansas City Center
Sat 07:55:50 AM 36.8800 -92.5628 174° South 135 155 7,000  Level Kansas City Center
Sat 07:56:51 AM 36.8417 -92.5572 173° South 136 157 7,000  Level Kansas City Center
Sat 07:57:51 AM 36.8039 -92.5536 176° South 136 157 7,000  Level Kansas City Center
Sat 07:58:52 AM 36.7669 -92.5497 175° South 134 154 7,000  Level Kansas City Center
Sat 07:59:52 AM 36.7303 -92.5447 174° South 133 153 7,000  Level Kansas City Center
Sat 08:00:53 AM 36.6944 -92.5397 174° South 131 151 7,000 49 Level Kansas City Center
Sat 08:01:54 AM 36.6572 -92.5336 172° South 131 151 7,100  Climbing Kansas City Center
Sat 08:02:54 AM 36.6181 -92.5328 179° South 139 160 7,000 -50 Descending Kansas City Center
Sat 08:03:55 AM 36.5808 -92.5264 172° South 141 162 7,000  Level Kansas City Center
Sat 08:04:56 AM 36.5442 -92.5239 177° South 136 157 7,000  Level Kansas City Center
Sat 08:05:56 AM 36.5083 -92.5147 168° South 133 153 7,000 -50 Level Kansas City Center
Sat 08:06:57 AM 36.4703 -92.5097 174° South 136 157 6,900  Descending Kansas City Center
Sat 08:07:58 AM 36.4333 -92.5108 181° South 135 155 7,000  Climbing Kansas City Center
Sat 08:08:58 AM 36.3956 -92.5106 180° South 135 155 6,900 -50 Descending Kansas City Center
Sat 08:09:59 AM 36.3575 -92.5111 181° South 137 158 6,900 42 Level Kansas City Center
Sat 08:11:22 AM 36.3053 -92.5053 175° South 133 153 7,000 42 Climbing Memphis Center
Sat 08:12:23 AM 36.2667 -92.5058 181° South 136 157 7,000  Level Memphis Center
Sat 08:13:23 AM 36.2317 -92.4981 170° South 131 151 7,000  Level Memphis Center
Sat 08:14:24 AM 36.1944 -92.4936 174° South 133 153 7,000  Level Memphis Center
Sat 08:15:25 AM 36.1578 -92.4861 171° South 133 153 7,000  Level Memphis Center
Sat 08:16:26 AM 36.1144 -92.4817 175° South 132 152 7,000  Level Memphis Center
Sat 08:17:27 AM 36.0789 -92.4722 168° South 131 151 7,000  Level Memphis Center
Sat 08:18:28 AM 36.0442 -92.4647 170° South 128 147 7,000  Level Memphis Center
Sat 08:19:29 AM 36.0078 -92.4575 171° South 131 151 7,000  Level Memphis Center
Sat 08:20:30 AM 35.9731 -92.4500 170° South 129 148 7,000 -49 Level Memphis Center
Sat 08:21:31 AM 35.9381 -92.4428 171° South 128 147 6,900 -49 Descending Memphis Center
Sat 08:22:32 AM 35.9014 -92.4356 171° South 130 150 6,900  Level Memphis Center
Sat 08:23:33 AM 35.8644 -92.4300 173° South 132 152 6,900  Level Memphis Center
Sat 08:24:46 AM 35.8292 -92.4236 172° South 130 150 6,900 45 Level Memphis Center
Sat 08:25:47 AM 35.7894 -92.4083 163° South 127 146 7,000  Climbing Memphis Center
Sat 08:26:48 AM 35.7556 -92.3956 163° South 127 146 6,900 -98 Descending Memphis Center
Sat 08:27:49 AM 35.7200 -92.3869 169° South 128 147 6,800  Descending Memphis Center
Sat 08:28:50 AM 35.6847 -92.3825 174° South 128 147 6,900 49 Climbing Memphis Center
Sat 08:29:51 AM 35.6450 -92.3758 172° South 124 143 6,900  Level Memphis Center
Sat 08:30:52 AM 35.6114 -92.3669 168° South 123 142 6,900 -49 Level Memphis Center
Sat 08:31:53 AM 35.5764 -92.3606 172° South 124 143 6,800 -49 Descending Memphis Center
Sat 08:32:55 AM 35.5422 -92.3544 172° South 125 144 6,800 49 Level Memphis Center
Sat 08:33:56 AM 35.5086 -92.3478 171° South 124 143 6,900 50 Climbing Memphis Center
Sat 08:34:55 AM 35.4750 -92.3372 166° South 122 140 6,900  Level Memphis Center
Sat 08:34:57 AM 35.4758 -92.3383 313° West 122 140 6,900  Level Memphis Center
Sat 08:35:31 AM 35.4539 -92.3311 165° South 124 143 6,900  Level Memphis Center
Sat 08:35:58 AM 35.4425 -92.3283 169° South 122 140 6,900 98 Level Memphis Center
Sat 08:36:32 AM 35.4203 -92.3256 174° South 119 137 7,000 98 Climbing Memphis Center
Sat 08:36:59 AM 35.4089 -92.3236 172° South 122 140 7,000 -98 Level Memphis Center
Sat 08:37:33 AM 35.3844 -92.3225 178° South 127 146 6,900 -98 Descending Memphis Center
Sat 08:38:00 AM 35.3731 -92.3208 173° South 124 143 6,900 -100 Level Memphis Center
Sat 08:38:33 AM 35.3467 -92.3172 174° South 129 148 6,800 -98 Descending Memphis Center
Sat 08:39:01 AM 35.3375 -92.3147 167° South 127 146 6,800 -393 Level Memphis Center
Sat 08:39:34 AM 35.3131 -92.3092 169° South 128 147 6,400 -590 Descending Memphis Center
Sat 08:40:02 AM 35.3022 -92.3094 181° South 128 147 6,200 -600 Descending Memphis Center
Sat 08:40:34 AM 35.2753 -92.3064 175° South 130 150 5,800 -590 Descending Memphis Center
Sat 08:41:03 AM 35.2664 -92.3058 177° South 128 147 5,600 -689 Descending Memphis Center
Sat 08:41:35 AM 35.2397 -92.3036 176° South 136 157 5,100 -689 Descending Memphis Center
Sat 08:42:04 AM 35.2203 -92.3033 179° South 132 152 4,900 -295 Descending Memphis Center
Sat 08:42:36 AM 35.2000 -92.3061 186° South 139 160 4,800 -97 Descending Memphis Center
Sat 08:43:06 AM 35.1817 -92.3056 179° South 135 155 4,800  Level Memphis Center
Sat 08:43:36 AM 35.1644 -92.3058 181° South 133 153 4,800  Level Memphis Center
Sat 08:44:07 AM 35.1456 -92.3075 184° South 134 154 4,800  Level Memphis Center
Sat 08:44:37 AM 35.1269 -92.3081 181° South 129 148 4,800 98 Level Memphis Center
Sat 08:45:08 AM 35.1103 -92.3086 182° South 131 151 4,900 98 Climbing Memphis Center
Sat 08:45:38 AM 35.0939 -92.3153 198° South 126 145 4,900  Level Memphis Center
Sat 08:46:09 AM 35.0786 -92.3269 212° Southwest 131 151 4,900 -100 Level Memphis Center
Sat 08:46:38 AM 35.0592 -92.3378 205° Southwest 135 155 4,800 -98 Descending Memphis Center
Sat 08:47:10 AM 35.0458 -92.3497 216° Southwest 133 153 4,800  Level Memphis Center
Sat 08:47:39 AM 35.0269 -92.3628 210° Southwest 134 154 4,800  Level Memphis Center
Sat 08:48:11 AM 35.0144 -92.3744 217° Southwest 134 154 4,800  Level Memphis Center
Sat 08:48:39 AM 34.9944 -92.3875 208° Southwest 137 158 4,800 98 Level Memphis Center
Sat 08:49:12 AM 34.9822 -92.3983 216° Southwest 135 155 4,900 98 Climbing Memphis Center
Sat 08:49:40 AM 34.9619 -92.4097 205° Southwest 134 154 4,900  Level Memphis Center
Sat 08:50:14 AM 34.9492 -92.4194 212° Southwest 135 155 4,900 -98 Level Memphis Center
Sat 08:50:41 AM 34.9294 -92.4297 203° Southwest 135 155 4,800 -207 Descending Memphis Center
Sat 08:51:41 AM 34.8925 -92.4469 201° Southwest 137 158 4,600 -316 Descending Memphis Center
Sat 08:52:16 AM 34.8792 -92.4556 208° Southwest 136 157 4,300 -590 Descending Memphis Center
Sat 08:52:42 AM 34.8533 -92.4594 187° South 138 159 4,000 -393 Descending Memphis Center
Sat 08:53:17 AM 34.8336 -92.4656 194° South 138 159 3,900 -100 Descending Memphis Center
Sat 08:53:42 AM 34.8161 -92.4694 190° South 142 163 3,900 -97 Level Memphis Center
Sat 08:54:19 AM 34.7947 -92.4736 189° South 141 162 3,800 -492 Descending Memphis Center
Sat 08:54:43 AM 34.7783 -92.4667 161° South 135 155 3,400 -689 Descending Memphis Center
Sat 08:55:20 AM 34.7606 -92.4581 158° South 135 155 3,100 -197 Descending Memphis Center
Sat 08:55:44 AM 34.7464 -92.4533 165° South 123 142 3,200 -787 Climbing Memphis Center
Sat 08:56:21 AM 34.7300 -92.4414 149° Southeast 128 147 2,300 -900 Descending Memphis Center
Sat 08:56:44 AM 34.7306 -92.4214 88° East 108 124 2,300 -194 Level Memphis Center
Sat 08:57:23 AM 34.7389 -92.4081 53° Northeast 111 128 2,100 -98 Descending Memphis Center
Sat 08:57:45 AM 34.7422 -92.3981 68° East 81 93 2,200 -295 Climbing Memphis Center
Sat 08:58:24 AM 34.7500 -92.3839 56° Northeast 94 108 1,800 -590 Descending Memphis Center
Sat 08:58:46 AM 34.7533 -92.3694 74° East 95 109 1,600  Descending Memphis Center
Sat 08:59:27 AM 34.7592 -92.3544 65° Northeast 91 105 1,800 600 Climbing Memphis Center
Sat 08:59:46 AM 34.7650 -92.3483 41° Northeast 77 89 2,200 492 Climbing Memphis Center
Sat 09:00:28 AM 34.7758 -92.3400 32° Northeast 84 97 2,300 295 Climbing Memphis Center
Sat 09:00:47 AM 34.7789 -92.3300 70° East 67 77 2,500 -484 Climbing Memphis Center
Sat 09:01:30 AM 34.7883 -92.3144 54° Northeast 75 86 1,800 -800 Descending Memphis Center
Sat 09:01:47 AM 34.7908 -92.3114 45° Northeast 75 86 1,700 -197 Descending Memphis Center
Sat 09:02:31 AM 34.8053 -92.2997 34° Northeast 74 85 1,600 -197 Descending Memphis Center
Sat 09:02:48 AM 34.8086 -92.2925 61° Northeast 82 94 1,500 -393 Descending Memphis Center
Sat 09:03:32 AM 34.8203 -92.2775 47° Northeast 79 91 1,200 -492 Descending Memphis Center
Sat 09:03:49 AM 34.8203 -92.2717 90° East 76 87 1,000 -290 Descending Memphis Center
Sat 09:04:34 AM 34.8286 -92.2592 51° Northeast 78 90 900 -133 Descending Memphis Center

Login

Don't have an account? Register now (free) for customized features, flight alerts, and more!